createdAt,value
2018-10-19T00:00:19.568Z,20.10
2018-10-19T00:02:47.970Z,22.27
2018-10-19T00:05:16.426Z,21.50
2018-10-19T00:07:44.951Z,21.43
2018-10-19T00:10:13.303Z,20.70
2018-10-19T00:12:41.699Z,21.77
2018-10-19T00:15:10.117Z,21.00
2018-10-19T00:17:38.491Z,20.43
2018-10-19T00:20:07.525Z,21.13
2018-10-19T00:22:35.939Z,22.90
2018-10-19T00:25:04.438Z,21.87
2018-10-19T00:27:32.833Z,22.03
2018-10-19T00:30:01.233Z,23.80
2018-10-19T00:32:29.640Z,22.83
2018-10-19T00:34:58.031Z,24.10
2018-10-19T00:37:26.457Z,23.13
2018-10-19T00:39:55.023Z,22.43
2018-10-19T00:42:23.476Z,24.10
2018-10-19T00:44:51.888Z,24.17
2018-10-19T00:47:20.367Z,22.57
2018-10-19T00:49:48.766Z,23.60
2018-10-19T00:52:17.163Z,24.10
2018-10-19T00:54:45.563Z,22.30
2018-10-19T00:57:13.971Z,24.10
2018-10-19T00:59:42.335Z,23.80
2018-10-19T01:02:10.704Z,23.03
2018-10-19T01:04:39.093Z,22.63
2018-10-19T01:07:07.495Z,24.97
2018-10-19T01:09:35.879Z,23.67
2018-10-19T01:12:04.287Z,24.30
2018-10-19T01:14:32.619Z,24.60
2018-10-19T01:17:00.993Z,25.47
2018-10-19T01:19:29.267Z,25.00
2018-10-19T01:21:57.587Z,25.33
2018-10-19T01:24:25.884Z,23.00
2018-10-19T01:26:54.223Z,25.23
2018-10-19T01:29:22.603Z,25.43
2018-10-19T01:31:50.883Z,25.30
2018-10-19T01:34:19.194Z,24.13
2018-10-19T01:39:31.815Z,25.60
2018-10-19T01:42:00.340Z,26.23
2018-10-19T01:44:28.753Z,24.87
2018-10-19T01:46:57.137Z,25.77
2018-10-19T01:49:25.543Z,25.60
2018-10-19T01:51:54.349Z,26.20
2018-10-19T01:54:22.752Z,25.80
2018-10-19T01:56:51.158Z,25.43
2018-10-19T01:59:19.595Z,26.20
2018-10-19T02:01:48.032Z,25.90
2018-10-19T02:04:16.415Z,28.10
2018-10-19T02:06:44.804Z,26.50
2018-10-19T02:09:13.417Z,26.77
2018-10-19T02:11:41.723Z,25.93
2018-10-19T02:14:10.153Z,27.40
2018-10-19T02:16:38.515Z,26.10
2018-10-19T02:19:07.060Z,27.07
2018-10-19T02:21:35.424Z,25.77
2018-10-19T02:24:03.812Z,26.40
2018-10-19T02:26:32.234Z,26.90
2018-10-19T02:29:00.759Z,25.27
2018-10-19T02:31:29.123Z,25.53
2018-10-19T02:33:57.500Z,26.93
2018-10-19T02:36:25.859Z,27.10
2018-10-19T02:38:54.301Z,27.50
2018-10-19T02:41:22.669Z,28.17
2018-10-19T02:43:51.099Z,27.63
2018-10-19T02:46:19.528Z,29.77
2018-10-19T02:48:47.968Z,27.33
2018-10-19T02:51:16.496Z,28.17
2018-10-19T02:53:44.991Z,27.77
2018-10-19T02:56:13.413Z,28.83
2018-10-19T02:58:41.823Z,27.73
2018-10-19T03:01:10.448Z,28.57
2018-10-19T03:03:38.852Z,27.87
2018-10-19T03:06:07.255Z,26.63
2018-10-19T03:08:35.676Z,28.93
2018-10-19T03:11:04.103Z,27.10
2018-10-19T03:13:33.443Z,29.97
2018-10-19T03:16:01.788Z,28.07
2018-10-19T03:18:30.235Z,28.30
2018-10-19T03:20:58.581Z,28.27
2018-10-19T03:23:26.976Z,27.53
2018-10-19T03:25:55.319Z,27.67
2018-10-19T03:28:23.712Z,26.73
2018-10-19T03:30:52.226Z,27.10
2018-10-19T03:33:20.552Z,28.17
2018-10-19T03:35:49.036Z,27.70
2018-10-19T03:38:17.691Z,27.73
2018-10-19T03:40:46.372Z,27.10
2018-10-19T03:43:14.987Z,27.10
2018-10-19T03:45:43.673Z,29.40
2018-10-19T03:48:12.253Z,27.93
2018-10-19T03:50:40.817Z,28.03
2018-10-19T03:53:09.405Z,27.00
2018-10-19T03:55:38.043Z,25.50
2018-10-19T03:58:07.897Z,27.73
2018-10-19T04:00:36.494Z,28.67
2018-10-19T04:03:05.252Z,28.00
2018-10-19T04:05:33.947Z,28.47
2018-10-19T04:08:02.718Z,26.87
2018-10-19T04:10:31.221Z,27.83
2018-10-19T04:12:59.873Z,29.50
2018-10-19T04:15:28.580Z,27.73
2018-10-19T04:17:57.249Z,27.80
2018-10-19T04:20:26.189Z,27.83
2018-10-19T04:23:00.181Z,27.40
2018-10-19T04:25:28.724Z,27.83
2018-10-19T04:27:57.362Z,26.87
2018-10-19T04:30:26.047Z,28.13
2018-10-19T04:32:54.673Z,29.37
2018-10-19T04:35:23.258Z,25.27
2018-10-19T04:37:51.945Z,28.60
2018-10-19T04:40:22.740Z,26.10
2018-10-19T04:42:51.469Z,27.23
2018-10-19T04:45:21.167Z,27.67
2018-10-19T04:47:49.908Z,26.80
2018-10-19T04:50:18.542Z,28.10
2018-10-19T04:52:52.727Z,27.33
2018-10-19T04:55:22.950Z,26.27
2018-10-19T04:57:52.395Z,26.13
2018-10-19T05:00:26.565Z,28.00
2018-10-19T05:02:55.362Z,28.87
2018-10-19T05:05:30.346Z,29.20
2018-10-19T05:07:59.752Z,27.50
2018-10-19T05:10:28.476Z,26.80
2018-10-19T05:12:57.092Z,24.97
2018-10-19T05:15:26.667Z,25.93
2018-10-19T05:17:54.985Z,26.00
2018-10-19T05:20:23.310Z,25.40
2018-10-19T05:22:51.606Z,26.27
2018-10-19T05:25:19.916Z,27.77
2018-10-19T05:27:48.215Z,26.33
2018-10-19T05:30:18.525Z,26.83
2018-10-19T05:32:46.931Z,26.40
2018-10-19T05:35:15.220Z,26.17
2018-10-19T05:37:43.609Z,26.07
2018-10-19T05:40:12.028Z,25.43
2018-10-19T05:42:40.723Z,27.63
2018-10-19T05:45:10.226Z,27.53
2018-10-19T05:47:38.517Z,29.63
2018-10-19T05:50:07.766Z,30.83
2018-10-19T05:52:36.582Z,29.07
2018-10-19T05:55:04.847Z,27.37
2018-10-19T05:57:33.191Z,28.87
2018-10-19T06:00:01.607Z,30.63
2018-10-19T06:02:30.297Z,27.43
2018-10-19T06:04:58.560Z,31.27
2018-10-19T06:07:26.999Z,28.93
2018-10-19T06:09:55.375Z,30.00
2018-10-19T06:12:24.775Z,27.90
2018-10-19T06:14:53.215Z,32.00
2018-10-19T06:17:21.763Z,28.77
2018-10-19T06:19:50.098Z,32.27
2018-10-19T06:22:19.548Z,32.37
2018-10-19T06:24:47.878Z,30.27
2018-10-19T06:27:16.494Z,31.70
2018-10-19T06:29:44.877Z,28.97
2018-10-19T06:32:13.779Z,31.97
2018-10-19T06:34:42.123Z,27.67
2018-10-19T06:37:10.675Z,29.90
2018-10-19T06:39:39.288Z,26.70
2018-10-19T06:42:07.919Z,28.37
2018-10-19T06:44:36.261Z,29.07
2018-10-19T06:47:05.500Z,30.10
2018-10-19T06:49:34.095Z,28.60
2018-10-19T06:52:03.731Z,28.00
2018-10-19T06:54:32.559Z,29.33
2018-10-19T06:57:01.111Z,29.13
2018-10-19T06:59:30.191Z,28.80
2018-10-19T07:01:58.608Z,28.20
2018-10-19T07:04:27.150Z,29.47
2018-10-19T07:06:55.655Z,31.33
2018-10-19T07:09:24.551Z,29.67
2018-10-19T07:11:52.939Z,29.83
2018-10-19T07:14:21.603Z,30.50
2018-10-19T07:16:50.107Z,28.83
2018-10-19T07:19:18.545Z,31.60
2018-10-19T07:21:47.383Z,28.87
2018-10-19T07:24:15.907Z,29.40
2018-10-19T07:26:44.331Z,29.77
2018-10-19T07:29:12.979Z,29.33
2018-10-19T07:31:47.779Z,28.33
2018-10-19T07:34:16.357Z,28.77
2018-10-19T07:36:44.769Z,26.97
2018-10-19T07:39:13.076Z,27.67
2018-10-19T07:41:41.512Z,27.40
2018-10-19T07:44:09.908Z,28.33
2018-10-19T07:46:38.245Z,28.60
2018-10-19T07:49:06.731Z,27.23
2018-10-19T07:51:35.223Z,27.27
2018-10-19T07:54:03.829Z,28.27
2018-10-19T07:56:32.165Z,28.20
2018-10-19T07:59:00.737Z,25.70
2018-10-19T08:01:29.343Z,25.80
2018-10-19T08:03:57.787Z,27.37
2018-10-19T08:06:26.859Z,27.40
2018-10-19T08:08:55.405Z,27.33
2018-10-19T08:11:23.799Z,28.57
2018-10-19T08:13:52.237Z,27.40
2018-10-19T08:16:20.862Z,27.87
2018-10-19T08:18:49.244Z,26.80
2018-10-19T08:21:17.876Z,27.37
2018-10-19T08:23:46.365Z,28.47
2018-10-19T08:26:15.342Z,27.87
2018-10-19T08:28:43.623Z,25.87
2018-10-19T08:31:12.177Z,26.63
2018-10-19T08:33:40.623Z,27.50
2018-10-19T08:36:09.266Z,27.37
2018-10-19T08:38:37.572Z,25.10
2018-10-19T08:41:06.325Z,25.83
2018-10-19T08:43:34.654Z,25.40
2018-10-19T08:46:08.441Z,25.23
2018-10-19T08:48:37.690Z,25.37
2018-10-19T08:51:06.048Z,28.10
2018-10-19T08:53:34.508Z,26.00
2018-10-19T08:56:03.049Z,27.03
2018-10-19T08:58:31.432Z,25.57
2018-10-19T09:01:00.005Z,27.57
2018-10-19T09:03:28.338Z,24.53
2018-10-19T09:05:56.798Z,24.67
2018-10-19T09:08:25.250Z,25.67
2018-10-19T09:10:54.481Z,26.10
2018-10-19T09:13:23.217Z,26.13
2018-10-19T09:15:51.731Z,25.30
2018-10-19T09:18:21.194Z,25.43
2018-10-19T09:20:50.098Z,25.73
2018-10-19T09:23:18.641Z,24.80
2018-10-19T09:25:47.139Z,26.67
2018-10-19T09:28:15.520Z,25.67
2018-10-19T09:30:43.994Z,25.20
2018-10-19T09:33:12.578Z,25.20
2018-10-19T09:35:41.220Z,22.87
2018-10-19T09:38:09.651Z,25.13
2018-10-19T09:40:38.238Z,25.60
2018-10-19T09:43:07.187Z,21.00
2018-10-19T09:45:35.772Z,23.63
2018-10-19T09:48:04.646Z,23.43
2018-10-19T09:50:33.439Z,22.70
2018-10-19T09:53:01.882Z,22.60
2018-10-19T09:55:30.348Z,24.70
2018-10-19T09:57:59.108Z,22.53
2018-10-19T10:00:33.174Z,23.17
2018-10-19T10:03:01.852Z,22.27
2018-10-19T10:05:30.251Z,22.80
2018-10-19T10:07:58.865Z,23.13
2018-10-19T10:10:27.446Z,21.47
2018-10-19T10:12:55.983Z,23.67
2018-10-19T10:15:24.442Z,23.40
2018-10-19T10:17:53.117Z,22.90
2018-10-19T10:20:21.580Z,23.33
2018-10-19T10:22:50.414Z,21.87
2018-10-19T10:25:18.859Z,21.20
2018-10-19T10:27:47.535Z,21.80
2018-10-19T10:30:16.131Z,20.57
2018-10-19T10:32:44.767Z,22.03
2018-10-19T10:35:13.307Z,21.20
2018-10-19T10:37:41.761Z,22.60
2018-10-19T10:40:11.316Z,22.90
2018-10-19T10:42:40.051Z,21.10
2018-10-19T10:45:08.821Z,22.27
2018-10-19T10:47:38.236Z,22.10
2018-10-19T10:50:06.931Z,23.40
2018-10-19T10:52:35.704Z,23.27
2018-10-19T10:55:06.095Z,21.70
2018-10-19T10:57:34.520Z,22.07
2018-10-19T11:00:03.104Z,21.33
2018-10-19T11:02:32.264Z,20.50
2018-10-19T11:05:01.011Z,19.97
2018-10-19T11:07:30.799Z,18.60
2018-10-19T11:10:00.230Z,19.40
2018-10-19T11:12:29.211Z,18.53
2018-10-19T11:14:58.317Z,17.13
2018-10-19T11:17:26.794Z,18.90
2018-10-19T11:19:55.602Z,18.20
2018-10-19T11:22:24.484Z,17.83
2018-10-19T11:27:33.543Z,20.73
2018-10-19T11:30:02.108Z,19.87
2018-10-19T11:32:30.668Z,19.27
2018-10-19T11:34:59.161Z,20.00
2018-10-19T11:37:27.609Z,16.53
2018-10-19T11:40:07.556Z,17.40
2018-10-19T11:42:35.892Z,17.83
2018-10-19T11:45:04.568Z,18.93
2018-10-19T11:47:32.994Z,20.00
2018-10-19T11:50:01.367Z,16.40
2018-10-19T11:52:29.736Z,18.60
2018-10-19T11:54:58.256Z,17.77
2018-10-19T11:57:26.662Z,17.10
2018-10-19T11:59:56.120Z,17.40
2018-10-19T12:02:24.629Z,17.80
2018-10-19T12:04:53.063Z,19.03
2018-10-19T12:07:21.551Z,18.90
2018-10-19T12:09:49.979Z,18.60
2018-10-19T12:12:18.459Z,18.10
2018-10-19T12:14:46.852Z,20.50
2018-10-19T12:17:15.433Z,19.40
2018-10-19T12:19:44.000Z,20.80
2018-10-19T12:22:12.402Z,18.53
2018-10-19T12:24:40.858Z,17.67
2018-10-19T12:27:09.436Z,19.07
2018-10-19T12:29:38.567Z,18.57
2018-10-19T12:32:07.284Z,18.63
2018-10-19T12:34:35.787Z,18.13
2018-10-19T12:37:04.346Z,18.50
2018-10-19T12:39:32.792Z,16.73
2018-10-19T12:42:01.343Z,17.70
2018-10-19T12:44:29.850Z,17.63
2018-10-19T12:47:10.532Z,17.53
2018-10-19T12:49:39.117Z,17.00
2018-10-19T12:52:07.687Z,17.27
2018-10-19T12:54:36.294Z,16.30
2018-10-19T12:57:06.529Z,17.17
2018-10-19T12:59:35.093Z,16.70
2018-10-19T13:02:03.875Z,18.83
2018-10-19T13:04:32.348Z,18.23
2018-10-19T13:07:00.769Z,17.00
2018-10-19T13:09:29.226Z,18.07
2018-10-19T13:11:57.534Z,18.10
2018-10-19T13:14:25.967Z,17.27
2018-10-19T13:16:54.303Z,17.47
2018-10-19T13:19:22.714Z,16.70
2018-10-19T13:21:51.107Z,16.50
2018-10-19T13:24:19.538Z,17.23
2018-10-19T13:26:47.964Z,17.13
2018-10-19T13:29:16.542Z,16.60
2018-10-19T13:31:44.988Z,16.23
2018-10-19T13:34:13.464Z,15.20
2018-10-19T13:36:42.967Z,15.97
2018-10-19T13:39:12.882Z,15.20
2018-10-19T13:41:41.538Z,16.57
2018-10-19T13:44:10.183Z,15.70
2018-10-19T13:46:38.599Z,14.93
2018-10-19T13:49:07.064Z,14.83
2018-10-19T13:51:35.668Z,13.73
2018-10-19T13:54:04.496Z,13.30
2018-10-19T13:56:33.243Z,13.17
2018-10-19T13:59:01.665Z,13.63
2018-10-19T14:01:30.167Z,14.60
2018-10-19T14:03:58.607Z,14.93
2018-10-19T14:06:27.310Z,14.30
2018-10-19T14:08:55.769Z,15.17
2018-10-19T14:11:24.248Z,15.70
2018-10-19T14:13:52.615Z,14.93
2018-10-19T14:16:21.107Z,15.97
2018-10-19T14:18:49.583Z,13.90
2018-10-19T14:21:17.944Z,14.27
2018-10-19T14:23:46.419Z,15.60
2018-10-19T14:26:14.840Z,14.37
2018-10-19T14:28:43.220Z,15.07
2018-10-19T14:31:11.626Z,15.50
2018-10-19T14:33:40.076Z,15.20
2018-10-19T14:36:08.645Z,17.40
2018-10-19T14:38:37.259Z,15.13
2018-10-19T14:41:05.700Z,16.23
2018-10-19T14:43:34.035Z,16.20
2018-10-19T14:46:02.430Z,15.83
2018-10-19T14:48:30.815Z,17.17
2018-10-19T14:50:59.188Z,15.67
2018-10-19T14:53:27.568Z,15.80
2018-10-19T14:55:55.911Z,16.90
2018-10-19T14:58:24.260Z,16.10
2018-10-19T15:00:52.684Z,17.00
2018-10-19T15:03:21.046Z,16.93
2018-10-19T15:05:49.425Z,15.90
2018-10-19T15:08:17.900Z,14.87
2018-10-19T15:10:46.592Z,16.70
2018-10-19T15:13:14.571Z,15.93
2018-10-19T15:15:42.959Z,15.23
2018-10-19T15:18:11.430Z,15.60
2018-10-19T15:20:39.713Z,17.13
2018-10-19T15:23:07.984Z,15.90
2018-10-19T15:25:36.290Z,16.20
2018-10-19T15:28:04.629Z,15.50
2018-10-19T15:30:32.921Z,16.37
2018-10-19T15:33:01.255Z,14.83
2018-10-19T15:35:29.512Z,16.00
2018-10-19T15:37:57.787Z,15.37
2018-10-19T15:40:37.875Z,15.57
2018-10-19T15:43:06.250Z,15.07
2018-10-19T15:45:34.644Z,15.63
2018-10-19T15:48:03.010Z,16.40
2018-10-19T15:50:31.424Z,16.87
2018-10-19T15:52:59.743Z,16.00
2018-10-19T15:55:28.019Z,16.00
2018-10-19T15:57:56.420Z,17.07
2018-10-19T16:00:25.045Z,16.30
2018-10-19T16:02:53.397Z,15.50
2018-10-19T16:05:21.873Z,15.90
2018-10-19T16:07:50.204Z,15.67
2018-10-19T16:10:18.627Z,16.23
2018-10-19T16:12:46.992Z,16.30
2018-10-19T16:15:15.423Z,16.10
2018-10-19T16:17:43.692Z,16.10
2018-10-19T16:20:12.024Z,16.63
2018-10-19T16:22:40.396Z,14.40
2018-10-19T16:25:08.923Z,14.83
2018-10-19T16:27:38.346Z,15.83
2018-10-19T16:30:10.549Z,15.80
2018-10-19T16:32:39.298Z,14.67
2018-10-19T16:35:08.200Z,13.73
2018-10-19T16:37:37.276Z,15.47
2018-10-19T16:40:05.732Z,15.10
2018-10-19T16:42:34.092Z,17.00
2018-10-19T16:45:02.480Z,15.13
2018-10-19T16:47:30.994Z,15.20
2018-10-19T16:49:59.332Z,16.87
2018-10-19T16:52:27.728Z,15.00
2018-10-19T16:54:55.961Z,16.07
2018-10-19T16:57:24.223Z,16.17
2018-10-19T16:59:52.646Z,15.23
2018-10-19T17:02:20.912Z,15.57
2018-10-19T17:04:49.467Z,15.07
2018-10-19T17:07:17.850Z,16.47
2018-10-19T17:09:46.319Z,15.90
2018-10-19T17:12:14.694Z,16.37
2018-10-19T17:14:42.883Z,15.60
2018-10-19T17:17:11.219Z,15.53
2018-10-19T17:19:39.508Z,16.77
2018-10-19T17:22:07.831Z,16.00
2018-10-19T17:24:36.130Z,15.80
2018-10-19T17:27:04.467Z,15.23
2018-10-19T17:29:32.684Z,16.17
2018-10-19T17:32:00.940Z,16.77
2018-10-19T17:34:29.210Z,15.33
2018-10-19T17:36:57.524Z,16.70
2018-10-19T17:39:25.763Z,16.47
2018-10-19T17:41:54.038Z,17.17
2018-10-19T17:44:22.319Z,16.40
2018-10-19T17:46:50.587Z,17.37
2018-10-19T17:49:18.865Z,16.87
2018-10-19T17:51:47.176Z,15.10
2018-10-19T17:54:15.803Z,16.90
2018-10-19T17:56:43.944Z,15.97
2018-10-19T17:59:12.270Z,15.53
2018-10-19T18:01:40.547Z,17.87
2018-10-19T18:04:08.915Z,16.50
2018-10-19T18:06:37.287Z,17.07
2018-10-19T18:09:08.711Z,16.00
2018-10-19T18:11:37.029Z,15.47
2018-10-19T18:14:05.615Z,18.87
2018-10-19T18:16:33.951Z,16.13
2018-10-19T18:19:02.283Z,16.77
2018-10-19T18:21:30.695Z,17.43
2018-10-19T18:23:58.967Z,17.37
2018-10-19T18:26:27.257Z,16.97
2018-10-19T18:28:55.568Z,18.00
2018-10-19T18:31:23.811Z,15.90
2018-10-19T18:33:52.097Z,15.93
2018-10-19T18:36:20.396Z,15.90
2018-10-19T18:38:48.685Z,15.63
2018-10-19T18:41:16.986Z,16.10
2018-10-19T18:43:45.285Z,15.50
2018-10-19T18:46:13.567Z,17.00
2018-10-19T18:48:41.835Z,16.73
2018-10-19T18:51:10.167Z,16.20
2018-10-19T18:53:38.451Z,15.90
2018-10-19T18:56:06.778Z,17.00
2018-10-19T18:58:35.037Z,19.60
2018-10-19T19:01:03.383Z,18.50
2018-10-19T19:03:31.698Z,17.23
2018-10-19T19:06:00.114Z,18.00
2018-10-19T19:08:28.470Z,15.77
2018-10-19T19:10:56.855Z,17.77
2018-10-19T19:13:30.127Z,16.73
2018-10-19T19:15:59.234Z,19.33
2018-10-19T19:18:27.576Z,17.43
2018-10-19T19:20:57.147Z,18.40
2018-10-19T19:23:25.499Z,17.80
2018-10-19T19:25:59.200Z,18.07
2018-10-19T19:28:27.589Z,17.70
2018-10-19T19:30:55.982Z,16.30
2018-10-19T19:33:29.543Z,15.90
2018-10-19T19:35:57.995Z,15.90
2018-10-19T19:38:26.375Z,16.00
2018-10-19T19:41:00.153Z,17.27
2018-10-19T19:43:28.655Z,17.20
2018-10-19T19:45:57.107Z,18.60
2018-10-19T19:50:35.709Z,19.80
2018-10-19T19:53:04.098Z,18.20
2018-10-19T19:55:32.395Z,18.67
2018-10-19T19:58:00.828Z,20.00
2018-10-19T20:00:29.178Z,18.77
2018-10-19T20:02:57.749Z,19.13
2018-10-19T20:05:26.116Z,18.87
2018-10-19T20:07:54.526Z,18.77
2018-10-19T20:10:22.894Z,18.77
2018-10-19T20:12:51.287Z,17.87
2018-10-19T20:15:19.714Z,18.70
2018-10-19T20:17:48.074Z,19.43
2018-10-19T20:20:16.590Z,18.13
2018-10-19T20:22:44.892Z,19.53
2018-10-19T20:25:13.523Z,20.90
2018-10-19T20:27:41.967Z,23.83
2018-10-19T20:30:11.959Z,24.10
2018-10-19T20:32:40.571Z,22.07
2018-10-19T20:35:09.430Z,20.80
2018-10-19T20:37:37.920Z,20.23
2018-10-19T20:40:06.376Z,20.00
2018-10-19T20:42:35.034Z,18.47
2018-10-19T20:45:03.789Z,20.60
2018-10-19T20:47:32.279Z,19.10
2018-10-19T20:50:00.881Z,19.63
2018-10-19T20:52:29.319Z,20.60
2018-10-19T20:54:57.891Z,18.30
2018-10-19T20:57:26.335Z,17.40
2018-10-19T20:59:54.825Z,19.40
2018-10-19T21:02:23.281Z,17.70
2018-10-19T21:04:51.699Z,17.10
2018-10-19T21:07:20.205Z,17.23
2018-10-19T21:09:48.623Z,16.83
2018-10-19T21:12:17.041Z,15.87
2018-10-19T21:14:45.487Z,16.13
2018-10-19T21:17:14.024Z,15.20
2018-10-19T21:19:42.383Z,14.63
2018-10-19T21:22:10.759Z,15.77
2018-10-19T21:24:39.219Z,16.67
2018-10-19T21:27:07.655Z,17.40
2018-10-19T21:29:36.148Z,16.80
2018-10-19T21:32:04.907Z,17.50
2018-10-19T21:34:33.214Z,19.10
2018-10-19T21:37:01.831Z,16.10
2018-10-19T21:39:30.239Z,15.10
2018-10-19T21:41:58.626Z,18.53
2018-10-19T21:44:27.010Z,17.60
2018-10-19T21:46:55.461Z,17.20
2018-10-19T21:49:23.851Z,17.03
2018-10-19T21:51:52.567Z,15.50
2018-10-19T21:54:21.034Z,15.77
2018-10-19T21:56:49.515Z,17.90
2018-10-19T21:59:18.025Z,16.20
2018-10-19T22:01:46.454Z,17.40
2018-10-19T22:04:14.931Z,15.90
2018-10-19T22:06:43.398Z,17.77
2018-10-19T22:09:13.000Z,17.10
2018-10-19T22:11:41.878Z,16.50
2018-10-19T22:14:10.857Z,17.23
2018-10-19T22:16:40.095Z,16.27
2018-10-19T22:19:09.379Z,16.50
2018-10-19T22:21:37.774Z,16.13
2018-10-19T22:24:06.940Z,15.83
2018-10-19T22:26:35.323Z,14.23
2018-10-19T22:29:03.781Z,17.60
2018-10-19T22:31:32.108Z,17.60
2018-10-19T22:34:00.667Z,17.30
2018-10-19T22:36:29.027Z,14.03
2018-10-19T22:38:57.465Z,16.47
2018-10-19T22:41:25.868Z,18.63
2018-10-19T22:43:54.248Z,18.87
2018-10-19T22:46:22.600Z,17.67
2018-10-19T22:48:51.086Z,18.00
2018-10-19T22:51:19.527Z,17.17
2018-10-19T22:53:47.921Z,17.37
2018-10-19T22:56:16.485Z,17.00
2018-10-19T22:58:44.815Z,16.57
2018-10-19T23:01:13.335Z,16.10
2018-10-19T23:03:41.687Z,18.47
2018-10-19T23:06:10.144Z,17.00
2018-10-19T23:08:38.543Z,16.43
2018-10-19T23:11:06.966Z,16.77
2018-10-19T23:13:35.276Z,16.20
2018-10-19T23:16:03.687Z,16.93
2018-10-19T23:18:32.101Z,17.57
2018-10-19T23:21:00.599Z,16.57
2018-10-19T23:23:28.959Z,15.17
2018-10-19T23:25:57.357Z,17.07
2018-10-19T23:28:25.703Z,17.70
2018-10-19T23:30:54.089Z,17.50
2018-10-19T23:33:22.407Z,16.00
2018-10-19T23:35:50.775Z,16.97
2018-10-19T23:38:19.128Z,16.47
2018-10-19T23:40:47.500Z,15.77
2018-10-19T23:43:15.943Z,15.50
2018-10-19T23:45:44.467Z,13.90
2018-10-19T23:48:12.940Z,15.60
2018-10-19T23:50:41.357Z,14.73
2018-10-19T23:53:09.885Z,16.00
2018-10-19T23:55:38.252Z,15.57
2018-10-19T23:58:06.832Z,16.00
